Time;durP1;ratioP1;P1;durP2;ratioP2;P2;SDS_P1;SDS_P2;PMS_P1;PMS_P2;Temp;Humidity;BMP_temperature;BMP_pressure;BME280_temperature;BME280_humidity;BME280_pressure;Samples;Min_cycle;Max_cycle;Signal;HPM_P1;HPM_P2
2023/10/17 00:01:20;;;;;;;10.30;4.70;;;2.70;99.90;;;;;;4245831;27;20317;-57
2023/10/17 00:03:21;;;;;;;9.97;4.73;;;2.70;99.90;;;;;;4244206;27;20275;-56
2023/10/17 00:05:23;;;;;;;16.27;4.57;;;2.60;99.90;;;;;;4245405;27;20287;-57
2023/10/17 00:07:24;;;;;;;7.97;4.60;;;2.60;99.90;;;;;;4243760;27;20263;-53
2023/10/17 00:09:25;;;;;;;10.37;4.00;;;2.60;99.90;;;;;;4245614;27;20259;-56
2023/10/17 00:11:32;;;;;;;9.67;4.13;;;2.60;99.90;;;;;;4244027;27;20339;-53
2023/10/17 00:13:38;;;;;;;5.90;3.60;;;2.60;99.90;;;;;;4245446;27;20334;-57
2023/10/17 00:15:39;;;;;;;10.47;5.13;;;2.60;99.90;;;;;;4243845;27;20275;-57
2023/10/17 00:17:41;;;;;;;13.67;5.63;;;2.50;99.90;;;;;;4245189;27;20283;-58
2023/10/17 00:19:44;;;;;;;10.10;4.83;;;2.50;99.90;;;;;;4243998;27;20641;-55
2023/10/17 00:21:46;;;;;;;8.70;4.93;;;2.40;99.90;;;;;;4243201;27;20337;-55
2023/10/17 00:23:47;;;;;;;8.97;5.23;;;2.40;99.90;;;;;;4244393;27;20428;-57
2023/10/17 00:25:49;;;;;;;8.33;4.70;;;2.40;99.90;;;;;;4244375;27;20667;-57
2023/10/17 00:27:50;;;;;;;7.70;3.83;;;2.40;99.90;;;;;;4244806;27;20260;-56
2023/10/17 00:29:51;;;;;;;6.13;3.20;;;2.30;99.90;;;;;;4244608;27;20276;-57
2023/10/17 00:31:52;;;;;;;5.53;3.47;;;2.30;99.90;;;;;;4245153;27;20610;-57
2023/10/17 00:33:57;;;;;;;8.03;3.07;;;2.30;99.90;;;;;;4244678;27;20263;-57
2023/10/17 00:36:03;;;;;;;5.33;2.57;;;2.30;99.90;;;;;;4245420;27;20645;-54
2023/10/17 00:38:08;;;;;;;4.87;2.50;;;2.30;99.90;;;;;;4243883;27;20786;-57
2023/10/17 00:40:26;;;;;;;6.57;3.13;;;2.20;99.90;;;;;;4244831;27;20747;-53
2023/10/17 00:42:29;;;;;;;5.20;3.00;;;2.20;99.90;;;;;;4243892;27;20664;-58
2023/10/17 00:44:50;;;;;;;6.27;2.87;;;2.20;99.90;;;;;;4245274;27;20611;-56
2023/10/17 00:46:52;;;;;;;9.23;4.27;;;2.20;99.90;;;;;;4243632;27;20332;-57
2023/10/17 00:48:56;;;;;;;6.93;4.37;;;2.20;99.90;;;;;;4245243;27;20320;-57
2023/10/17 00:51:07;;;;;;;7.43;4.20;;;2.20;99.90;;;;;;4243581;27;20283;-56
2023/10/17 00:53:08;;;;;;;;;;;2.10;99.90;;;;;;4245448;27;20283;-54
2023/10/17 00:55:11;;;;;;;7.10;4.20;;;2.10;99.90;;;;;;4243819;27;19903;-52
2023/10/17 00:57:17;;;;;;;7.60;3.43;;;2.10;99.90;;;;;;4228036;28;20306;-57
2023/10/17 00:59:24;;;;;;;5.13;3.13;;;2.00;99.90;;;;;;4241819;28;20336;-55
2023/10/17 01:01:27;;;;;;;6.90;3.47;;;2.00;99.90;;;;;;4244280;28;20251;-59
2023/10/17 01:03:29;;;;;;;5.43;2.67;;;2.00;99.90;;;;;;4243172;27;20826;-58
2023/10/17 01:05:41;;;;;;;9.47;4.17;;;2.00;99.90;;;;;;4245062;28;20665;-58
2023/10/17 01:07:42;;;;;;;6.93;3.27;;;2.00;99.90;;;;;;4244076;27;20343;-57
2023/10/17 01:09:47;;;;;;;5.87;3.77;;;2.00;99.90;;;;;;4244763;27;20605;-56
2023/10/17 01:11:48;;;;;;;5.13;3.10;;;2.00;99.90;;;;;;4243479;28;20268;-56
2023/10/17 01:13:53;;;;;;;5.50;3.10;;;2.00;99.90;;;;;;4244493;27;20743;-58
2023/10/17 01:15:57;;;;;;;5.93;3.30;;;2.00;99.90;;;;;;4243994;27;20316;-57
2023/10/17 01:18:03;;;;;;;4.73;2.93;;;2.10;99.90;;;;;;4244508;27;20303;-56
2023/10/17 01:20:14;;;;;;;4.27;2.30;;;2.00;99.90;;;;;;4243441;27;20606;-57
2023/10/17 01:22:15;;;;;;;3.58;2.28;;;2.00;99.90;;;;;;4244181;27;20268;-56
2023/10/17 01:24:16;;;;;;;3.20;2.10;;;2.00;99.90;;;;;;4243846;28;20158;-56
2023/10/17 01:26:23;;;;;;;3.03;2.00;;;2.00;99.90;;;;;;4243839;27;20279;-57
2023/10/17 01:28:24;;;;;;;6.50;2.40;;;2.00;99.90;;;;;;4244077;27;20340;-57
2023/10/17 01:30:29;;;;;;;4.70;2.23;;;2.00;99.90;;;;;;4243665;27;20682;-57
2023/10/17 01:32:30;;;;;;;4.77;2.20;;;2.00;99.90;;;;;;4244300;28;20328;-58
2023/10/17 01:34:31;;;;;;;4.40;2.30;;;2.00;99.90;;;;;;4243850;28;20267;-57
2023/10/17 01:36:33;;;;;;;2.67;2.00;;;2.00;99.90;;;;;;4244784;27;20320;-56
2023/10/17 01:38:34;;;;;;;5.20;2.40;;;2.00;99.90;;;;;;4244830;27;20336;-58
2023/10/17 01:40:35;;;;;;;4.13;2.10;;;2.00;99.90;;;;;;4248029;27;20268;-57
2023/10/17 01:42:39;;;;;;;4.57;2.30;;;2.00;99.90;;;;;;4246789;27;20275;-58
2023/10/17 01:44:40;;;;;;;5.07;2.27;;;1.90;99.90;;;;;;4248241;27;20275;-53
2023/10/17 01:46:43;;;;;;;4.73;2.73;;;1.90;99.90;;;;;;4246596;27;20271;-55
2023/10/17 01:48:47;;;;;;;5.70;3.10;;;1.90;99.90;;;;;;4247721;27;20296;-56
2023/10/17 01:50:49;;;;;;;5.00;3.30;;;1.90;99.90;;;;;;4246580;27;20264;-58
2023/10/17 01:52:54;;;;;;;5.90;3.00;;;1.90;99.90;;;;;;4247992;27;20614;-57
2023/10/17 01:54:55;;;;;;;5.03;2.70;;;1.90;99.90;;;;;;4246600;27;20681;-58
2023/10/17 01:57:05;;;;;;;4.20;2.70;;;1.90;99.90;;;;;;4247446;27;20272;-60
2023/10/17 01:59:17;;;;;;;3.92;2.40;;;1.90;99.90;;;;;;4246838;27;20299;-57
2023/10/17 02:01:24;;;;;;;4.13;2.37;;;1.90;99.90;;;;;;4247056;27;20032;-57
2023/10/17 02:03:25;;;;;;;7.13;3.10;;;1.90;99.90;;;;;;4245768;27;20985;-58
2023/10/17 02:05:27;;;;;;;6.03;3.23;;;1.90;99.90;;;;;;4246731;27;20283;-58
2023/10/17 02:07:28;;;;;;;6.90;4.27;;;1.80;99.90;;;;;;4245451;27;20622;-57
2023/10/17 02:11:43;;;;;;;9.70;4.37;;;1.80;99.90;;;;;;4247083;27;20724;-59
2023/10/17 02:13:45;;;;;;;6.83;3.87;;;1.80;99.90;;;;;;4246701;27;20519;-58
2023/10/17 02:15:50;;;;;;;5.17;2.80;;;1.80;99.90;;;;;;4247150;27;20275;-57
2023/10/17 02:17:53;;;;;;;4.20;2.53;;;1.70;99.90;;;;;;4246089;27;20304;-54
2023/10/17 02:19:58;;;;;;;5.17;2.87;;;1.70;99.90;;;;;;4247136;27;20320;-58
2023/10/17 02:22:00;;;;;;;4.57;2.40;;;1.70;99.90;;;;;;4245973;27;20368;-53
2023/10/17 02:24:03;;;;;;;8.70;2.40;;;1.70;99.90;;;;;;4246784;27;20343;-59
2023/10/17 02:26:08;;;;;;;5.37;2.73;;;1.70;99.90;;;;;;4244501;27;20283;-57
2023/10/17 02:28:09;;;;;;;5.80;3.20;;;1.70;99.90;;;;;;4246987;27;20313;-59
2023/10/17 02:30:12;;;;;;;7.20;2.90;;;1.70;99.90;;;;;;4245510;27;20271;-59
2023/10/17 02:32:14;;;;;;;5.80;3.10;;;1.70;99.90;;;;;;4246343;27;20764;-56
2023/10/17 02:34:15;;;;;;;4.33;2.90;;;1.70;99.90;;;;;;4246170;27;20316;-59
2023/10/17 02:36:16;;;;;;;5.97;3.13;;;1.60;99.90;;;;;;4245742;27;20317;-56
2023/10/17 02:38:17;;;;;;;10.53;3.90;;;1.70;99.90;;;;;;4245234;27;20288;-58
2023/10/17 02:40:20;;;;;;;9.07;3.33;;;1.60;99.90;;;;;;4246927;27;20287;-56
2023/10/17 02:42:22;;;;;;;8.57;3.70;;;1.50;99.90;;;;;;4246016;27;20335;-57
2023/10/17 02:44:23;;;;;;;5.40;3.77;;;1.40;99.90;;;;;;4246183;27;20275;-58
2023/10/17 02:46:28;;;;;;;6.70;3.33;;;1.40;99.90;;;;;;4246254;27;20259;-55
2023/10/17 02:48:29;;;;;;;6.53;3.30;;;1.30;99.90;;;;;;4246053;27;20730;-55
2023/10/17 02:52:32;;;;;;;7.17;3.10;;;1.30;99.90;;;;;;4245368;27;20267;-57
2023/10/17 02:54:48;;;;;;;11.70;4.13;;;1.30;99.90;;;;;;4246315;27;20608;-56
2023/10/17 02:56:53;;;;;;;7.63;4.13;;;1.30;99.90;;;;;;4245509;27;20332;-57
2023/10/17 03:01:04;;;;;;;7.57;4.28;;;1.30;99.90;;;;;;4245741;27;20263;-56
2023/10/17 03:03:12;;;;;;;10.80;4.57;;;1.30;99.90;;;;;;4246486;27;20372;-56
2023/10/17 03:05:13;;;;;;;8.10;3.77;;;1.20;99.90;;;;;;4245962;27;20808;-55
2023/10/17 03:07:15;;;;;;;6.47;3.83;;;1.10;99.90;;;;;;4246341;27;20275;-55
2023/10/17 03:09:36;;;;;;;7.53;3.77;;;1.10;99.90;;;;;;4243921;27;20309;-54
2023/10/17 03:11:47;;;;;;;7.43;4.53;;;1.10;99.90;;;;;;4246332;27;20862;-57
2023/10/17 03:13:48;;;;;;;7.40;4.30;;;1.00;99.90;;;;;;4245334;27;20096;-54
2023/10/17 03:15:56;;;;;;;6.93;3.77;;;1.10;99.90;;;;;;4246573;27;20088;-57
2023/10/17 03:18:00;;;;;;;4.93;3.60;;;1.10;99.90;;;;;;4245085;27;20308;-58
2023/10/17 03:20:03;;;;;;;8.77;4.23;;;1.10;99.90;;;;;;4245954;27;20304;-56
2023/10/17 03:22:26;;;;;;;11.77;5.13;;;1.20;99.90;;;;;;4245015;27;20328;-53
2023/10/17 03:24:40;;;;;;;14.47;4.47;;;1.10;99.90;;;;;;4245174;27;20283;-56
2023/10/17 03:26:54;;;;;;;10.10;4.50;;;1.10;99.90;;;;;;4244903;27;20263;-59
2023/10/17 03:28:55;;;;;;;8.23;4.23;;;1.10;99.90;;;;;;4246002;27;20352;-58
2023/10/17 03:30:56;;;;;;;9.43;4.30;;;1.10;99.90;;;;;;4242438;27;20660;-57
2023/10/17 03:35:03;;;;;;;10.10;3.93;;;1.00;99.90;;;;;;4245332;27;20363;-59
2023/10/17 03:39:28;;;;;;;7.97;3.58;;;1.00;99.90;;;;;;4244337;27;20363;-58
2023/10/17 03:41:29;;;;;;;11.67;4.40;;;0.90;99.90;;;;;;4246169;27;20035;-56
2023/10/17 03:43:38;;;;;;;21.63;6.57;;;0.80;99.90;;;;;;4244925;27;20288;-57
2023/10/17 03:45:52;;;;;;;13.53;4.97;;;0.80;99.90;;;;;;4246265;27;20312;-60
2023/10/17 03:47:56;;;;;;;7.03;4.20;;;0.80;99.90;;;;;;4244466;27;20293;-59
2023/10/17 03:49:57;;;;;;;10.70;4.80;;;0.80;99.90;;;;;;4245562;27;20344;-59
2023/10/17 03:52:03;;;;;;;7.27;4.53;;;0.80;99.90;;;;;;4244418;27;20822;-58
2023/10/17 03:54:08;;;;;;;8.87;4.23;;;0.80;99.90;;;;;;4245334;27;20629;-59
2023/10/17 03:56:11;;;;;;;10.53;5.43;;;0.70;99.90;;;;;;4244365;27;20374;-57
2023/10/17 03:58:25;;;;;;;9.73;4.37;;;0.70;99.90;;;;;;4245042;27;20259;-58
2023/10/17 04:00:41;;;;;;;12.50;4.80;;;0.60;99.90;;;;;;4241053;27;20283;-59
2023/10/17 04:02:42;;;;;;;11.17;4.40;;;0.60;99.90;;;;;;4242309;27;20316;-62
2023/10/17 04:04:55;;;;;;;11.57;4.53;;;0.60;99.90;;;;;;4244520;27;20320;-57
2023/10/17 04:06:57;;;;;;;9.63;4.73;;;0.50;99.90;;;;;;4243723;27;20271;-59
2023/10/17 04:11:36;;;;;;;11.57;4.30;;;0.50;99.90;;;;;;4236104;27;20339;-59
2023/10/17 04:13:37;;;;;;;8.47;4.30;;;0.50;99.90;;;;;;4243584;27;20023;-60
2023/10/17 04:15:42;;;;;;;13.67;4.17;;;0.50;99.90;;;;;;4244813;27;20275;-57
2023/10/17 04:17:46;;;;;;;8.23;3.87;;;0.50;99.90;;;;;;4243392;27;20316;-54
2023/10/17 04:19:48;;;;;;;10.70;4.00;;;0.50;99.90;;;;;;4244311;27;20775;-59
2023/10/17 04:24:05;;;;;;;10.40;5.13;;;0.40;99.90;;;;;;4231539;27;20309;-58
2023/10/17 04:26:07;;;;;;;15.00;5.50;;;0.30;99.90;;;;;;4227068;28;20276;-60
2023/10/17 04:28:10;;;;;;;12.67;6.23;;;0.20;99.90;;;;;;4240602;27;20320;-54
2023/10/17 04:30:15;;;;;;;14.37;6.07;;;0.10;99.90;;;;;;4244257;27;20320;-58
2023/10/17 04:32:17;;;;;;;13.00;6.03;;;0.00;99.90;;;;;;4243865;27;20267;-60
2023/10/17 04:34:21;;;;;;;13.73;6.20;;;0.00;99.90;;;;;;4244818;27;20395;-59
2023/10/17 04:36:26;;;;;;;17.57;6.37;;;0.00;99.90;;;;;;4244082;27;20328;-58
2023/10/17 04:40:37;;;;;;;17.50;8.33;;;-0.10;99.90;;;;;;4242179;27;20811;-58
2023/10/17 04:45:03;;;;;;;15.33;7.93;;;-0.20;99.90;;;;;;4243191;27;20335;-56
2023/10/17 04:47:25;;;;;;;18.83;7.63;;;-0.20;99.90;;;;;;4244943;27;20279;-58
2023/10/17 04:49:30;;;;;;;17.97;8.53;;;-0.20;99.90;;;;;;4243412;27;20475;-60
2023/10/17 04:51:33;;;;;;;14.47;7.07;;;-0.20;99.90;;;;;;4242173;27;20363;-59
2023/10/17 04:53:38;;;;;;;26.07;9.67;;;-0.20;99.90;;;;;;4243496;27;20252;-57
2023/10/17 04:56:01;;;;;;;23.77;13.70;;;-0.20;99.90;;;;;;4243189;27;20784;-60
2023/10/17 04:58:30;;;;;;;22.73;9.60;;;-0.30;99.90;;;;;;4241109;27;20271;-55
2023/10/17 05:02:54;;;;;;;17.67;8.83;;;0.00;99.90;;;;;;4243631;27;20375;-60
2023/10/17 05:09:08;;;;;;;27.27;14.30;;;0.20;99.90;;;;;;4244590;27;20995;-60
2023/10/17 06:18:49;;;;;;;16.23;10.13;;;6.40;99.90;;;;;;4245010;27;20064;-59
2023/10/17 06:23:23;;;;;;;19.57;8.70;;;6.60;99.90;;;;;;4245446;27;20076;-60
2023/10/17 06:30:29;;;;;;;17.48;10.02;;;6.70;99.90;;;;;;4235181;27;20036;-59
2023/10/17 06:34:38;;;;;;;18.77;10.07;;;6.70;99.90;;;;;;4246067;27;20039;-58
2023/10/17 06:36:40;;;;;;;22.13;11.37;;;6.50;99.90;;;;;;4246115;27;20027;-59
2023/10/17 06:38:47;;;;;;;15.20;9.83;;;6.40;99.90;;;;;;4246218;27;20080;-58
2023/10/17 06:40:53;;;;;;;23.87;10.47;;;6.20;99.90;;;;;;4245792;27;20072;-57
2023/10/17 06:43:01;;;;;;;20.87;9.97;;;6.20;99.90;;;;;;4246810;27;20027;-58
2023/10/17 06:45:09;;;;;;;24.67;9.30;;;6.10;99.90;;;;;;4245563;27;20507;-56
2023/10/17 06:47:17;;;;;;;20.30;10.77;;;6.30;99.90;;;;;;4246101;27;20027;-58
2023/10/17 06:51:49;;;;;;;19.87;9.77;;;6.20;99.90;;;;;;4213959;27;20042;-57
2023/10/17 06:53:55;;;;;;;22.83;10.07;;;5.90;99.90;;;;;;4245105;27;20043;-57
2023/10/17 06:56:04;;;;;;;18.60;10.03;;;5.60;99.90;;;;;;4246532;27;20042;-57
2023/10/17 06:58:09;;;;;;;19.53;9.80;;;5.50;99.90;;;;;;4245254;27;20072;-60
2023/10/17 07:00:24;;;;;;;25.63;12.83;;;5.30;99.90;;;;;;4246305;27;20051;-58
2023/10/17 07:02:28;;;;;;;25.90;16.00;;;5.00;99.90;;;;;;4244189;27;20099;-60
2023/10/17 07:04:29;;;;;;;23.07;14.23;;;4.90;99.90;;;;;;4228979;27;20043;-56
2023/10/17 07:06:34;;;;;;;15.60;8.10;;;4.70;99.90;;;;;;4234303;27;20294;-58
2023/10/17 07:08:36;;;;;;;12.97;7.37;;;4.60;99.90;;;;;;4245626;27;20031;-56
2023/10/17 07:10:37;;;;;;;13.23;7.50;;;4.40;99.90;;;;;;4245050;27;20429;-57
2023/10/17 07:12:39;;;;;;;10.30;6.03;;;4.30;99.90;;;;;;4245146;27;20035;-58
2023/10/17 07:14:48;;;;;;;10.67;6.33;;;4.20;99.90;;;;;;4244836;27;20027;-57
2023/10/17 07:16:49;;;;;;;10.37;6.37;;;4.20;99.90;;;;;;4245116;27;20039;-58
2023/10/17 07:18:53;;;;;;;11.50;5.57;;;4.20;99.90;;;;;;4244234;27;20060;-58
2023/10/17 07:21:55;;;;;;;13.53;6.50;;;4.10;99.90;;;;;;4243759;27;20072;-59
2023/10/17 07:23:19;;;;;;;9.63;5.17;;;4.10;99.90;;;;;;4242815;27;20035;-57
2023/10/17 07:25:20;;;;;;;9.57;5.60;;;3.90;99.90;;;;;;4243282;27;20480;-57
2023/10/17 07:27:33;;;;;;;11.90;6.67;;;4.00;99.90;;;;;;4243785;27;20053;-58
2023/10/17 07:29:36;;;;;;;13.17;5.93;;;4.10;99.90;;;;;;4244245;27;20263;-59
2023/10/17 07:31:37;;;;;;;10.27;5.80;;;4.20;99.90;;;;;;4244971;27;20069;-58
2023/10/17 07:33:42;;;;;;;14.00;5.83;;;4.40;99.90;;;;;;4244506;27;20429;-57
2023/10/17 07:35:44;;;;;;;10.20;5.37;;;4.50;99.90;;;;;;4245549;27;20520;-58
2023/10/17 07:37:53;;;;;;;12.90;5.60;;;4.60;99.90;;;;;;4244078;27;20072;-59
2023/10/17 07:40:15;;;;;;;10.37;5.80;;;4.80;99.90;;;;;;4245204;27;20055;-58
2023/10/17 07:42:29;;;;;;;12.10;5.27;;;5.00;99.90;;;;;;4244612;27;20384;-59
2023/10/17 07:44:34;;;;;;;9.57;6.00;;;4.90;99.90;;;;;;4245657;27;20267;-58
2023/10/17 07:46:38;;;;;;;12.10;5.70;;;4.80;99.90;;;;;;4244364;27;20267;-57
2023/10/17 07:48:39;;;;;;;7.57;5.57;;;4.80;99.90;;;;;;4245289;27;20113;-56
2023/10/17 07:50:40;;;;;;;8.80;4.90;;;4.70;99.90;;;;;;4244306;27;20080;-53
2023/10/17 07:52:50;;;;;;;9.87;5.53;;;4.70;99.90;;;;;;4245324;27;20035;-57
2023/10/17 07:57:17;;;;;;;12.45;6.25;;;4.60;99.90;;;;;;4245633;27;20035;-58
2023/10/17 07:59:30;;;;;;;7.97;5.77;;;4.50;99.90;;;;;;4243717;27;20429;-58
2023/10/17 08:01:33;;;;;;;11.40;6.37;;;4.50;99.90;;;;;;4245348;27;20035;-58
2023/10/17 08:03:40;;;;;;;7.13;5.50;;;4.50;99.90;;;;;;4244049;27;20251;-59
2023/10/17 08:08:04;;;;;;;10.27;6.30;;;4.50;99.90;;;;;;4243684;27;20248;-57
2023/10/17 08:10:10;;;;;;;10.80;6.13;;;4.60;99.90;;;;;;4244926;27;20119;-57
2023/10/17 08:12:15;;;;;;;9.10;5.70;;;4.70;99.90;;;;;;4243991;27;20027;-58
2023/10/17 08:14:18;;;;;;;8.50;6.13;;;4.80;99.90;;;;;;4244850;27;20256;-56
2023/10/17 08:16:26;;;;;;;9.23;6.67;;;4.90;99.90;;;;;;4243008;27;20068;-59
2023/10/17 08:18:28;;;;;;;10.40;6.53;;;4.90;99.90;;;;;;4243723;27;20522;-58
2023/10/17 08:23:06;;;;;;;11.43;7.17;;;5.00;99.90;;;;;;4232682;27;20031;-57
2023/10/17 08:25:13;;;;;;;10.90;6.07;;;5.20;99.90;;;;;;4242264;27;20291;-59
2023/10/17 08:29:25;;;;;;;12.02;7.00;;;5.40;99.90;;;;;;4233182;27;20115;-59
2023/10/17 08:31:36;;;;;;;13.93;6.90;;;5.50;99.90;;;;;;4240249;27;20437;-59
2023/10/17 08:33:37;;;;;;;14.87;7.27;;;5.50;99.90;;;;;;4235189;27;20047;-58
2023/10/17 08:35:38;;;;;;;10.70;7.07;;;5.60;99.90;;;;;;4231545;27;20052;-58
2023/10/17 08:37:43;;;;;;;11.90;7.57;;;5.60;99.90;;;;;;4243989;27;20031;-59
2023/10/17 08:41:50;;;;;;;15.23;8.43;;;5.70;99.90;;;;;;4242662;27;20095;-54
2023/10/17 08:43:54;;;;;;;10.77;7.10;;;5.70;99.90;;;;;;4228080;28;20031;-57
2023/10/17 08:45:58;;;;;;;13.87;8.10;;;5.80;99.90;;;;;;4226557;28;20036;-57
2023/10/17 08:48:00;;;;;;;13.93;8.93;;;5.80;99.90;;;;;;4237762;27;20043;-62
2023/10/17 08:50:04;;;;;;;13.83;8.23;;;6.00;99.90;;;;;;4243085;27;20035;-60
2023/10/17 08:52:06;;;;;;;11.60;7.43;;;6.10;99.90;;;;;;4244255;27;20099;-60
2023/10/17 08:54:08;;;;;;;13.77;8.50;;;6.20;99.90;;;;;;4243965;27;20049;-60
2023/10/17 08:56:13;;;;;;;15.40;8.70;;;6.30;99.90;;;;;;4243607;27;20055;-60
2023/10/17 08:58:15;;;;;;;13.23;8.53;;;6.40;99.90;;;;;;4243227;27;20438;-58
2023/10/17 09:00:49;;;;;;;16.17;8.07;;;6.50;99.90;;;;;;4226067;27;20051;-58
2023/10/17 09:02:56;;;;;;;;;;;6.70;99.90;;;;;;4216108;28;20175;-60
2023/10/17 09:05:18;;;;;;;11.70;7.40;;;6.80;99.90;;;;;;4225216;27;20306;-60
2023/10/17 09:07:32;;;;;;;11.67;7.50;;;7.10;99.90;;;;;;4239764;27;20506;-58
2023/10/17 09:09:34;;;;;;;14.60;8.77;;;7.20;99.90;;;;;;4243330;27;20117;-59
2023/10/17 09:11:41;;;;;;;13.87;7.97;;;7.30;99.90;;;;;;4241763;27;20040;-59
2023/10/17 09:15:55;;;;;;;15.60;8.70;;;7.40;99.90;;;;;;4242296;27;20099;-58
2023/10/17 09:18:08;;;;;;;12.43;8.30;;;7.60;99.90;;;;;;4242920;27;20061;-59
2023/10/17 09:20:16;;;;;;;12.10;8.10;;;7.80;99.90;;;;;;4241312;27;20131;-54
2023/10/17 09:22:23;;;;;;;13.30;6.77;;;7.90;99.90;;;;;;4243447;27;20047;-60
2023/10/17 09:24:35;;;;;;;11.77;6.83;;;8.00;99.90;;;;;;4242651;27;20098;-60
2023/10/17 09:26:43;;;;;;;12.60;7.47;;;8.00;99.90;;;;;;4242670;27;20096;-59
2023/10/17 09:28:46;;;;;;;10.60;7.40;;;8.10;99.90;;;;;;4243254;28;20031;-58
2023/10/17 09:31:08;;;;;;;13.73;7.23;;;8.20;99.90;;;;;;4242751;27;20076;-59
2023/10/17 09:33:30;;;;;;;14.17;7.63;;;8.30;99.90;;;;;;4240017;27;20040;-61
2023/10/17 09:35:33;;;;;;;12.77;6.93;;;8.40;99.90;;;;;;4241757;27;20365;-60
2023/10/17 09:37:37;;;;;;;16.30;8.13;;;8.40;99.90;;;;;;4234284;28;20035;-60
2023/10/17 09:39:46;;;;;;;11.40;6.43;;;8.50;99.90;;;;;;4242201;27;20056;-55
2023/10/17 09:41:48;;;;;;;10.97;7.13;;;8.60;99.90;;;;;;4243051;28;20038;-60
2023/10/17 09:43:51;;;;;;;13.03;7.10;;;8.70;99.90;;;;;;4243064;27;20035;-59
2023/10/17 09:45:54;;;;;;;14.83;8.40;;;8.80;99.90;;;;;;4243625;27;20039;-58
2023/10/17 09:48:01;;;;;;;12.67;7.63;;;8.80;99.90;;;;;;4242729;28;20031;-58
2023/10/17 09:50:03;;;;;;;13.40;7.30;;;8.80;99.90;;;;;;4243277;27;20039;-59
2023/10/17 09:52:09;;;;;;;12.97;8.60;;;8.80;99.90;;;;;;4242880;27;20040;-61
2023/10/17 09:54:12;;;;;;;12.80;7.53;;;8.90;99.90;;;;;;4243074;28;20039;-59
2023/10/17 09:56:20;;;;;;;13.60;6.97;;;8.90;99.90;;;;;;4242499;27;20444;-58
2023/10/17 09:58:45;;;;;;;10.20;6.80;;;9.00;99.90;;;;;;4243780;27;20431;-59
2023/10/17 10:00:52;;;;;;;15.50;8.97;;;9.00;99.90;;;;;;4245647;27;20102;-58
2023/10/17 10:02:55;;;;;;;8.57;6.23;;;9.00;99.90;;;;;;4246670;27;20043;-58
2023/10/17 10:04:56;;;;;;;10.07;6.70;;;9.10;99.90;;;;;;4244375;27;20046;-59
2023/10/17 10:07:23;;;;;;;11.40;7.40;;;9.10;99.90;;;;;;4235677;27;20457;-59
2023/10/17 10:09:26;;;;;;;11.40;6.47;;;9.30;99.90;;;;;;4228356;28;20048;-59
2023/10/17 10:11:50;;;;;;;11.87;6.87;;;9.40;99.90;;;;;;4246544;27;20043;-59
2023/10/17 10:14:04;;;;;;;7.80;4.57;;;9.50;99.90;;;;;;4245488;27;20027;-59
2023/10/17 10:16:05;;;;;;;5.17;4.00;;;9.80;99.90;;;;;;4246030;27;20081;-60
2023/10/17 10:18:06;;;;;;;5.23;3.07;;;9.80;99.90;;;;;;4245440;27;20487;-60
2023/10/17 10:20:08;;;;;;;4.17;2.70;;;9.90;99.90;;;;;;4245474;27;20104;-60
2023/10/17 10:22:14;;;;;;;7.30;3.07;;;9.90;99.90;;;;;;4244759;27;20060;-60
2023/10/17 10:24:18;;;;;;;3.63;2.43;;;10.00;99.90;;;;;;4245870;27;20043;-60
2023/10/17 10:26:19;;;;;;;5.83;3.33;;;10.10;99.90;;;;;;4243121;27;20039;-60
2023/10/17 10:28:31;;;;;;;6.50;3.70;;;10.10;99.90;;;;;;4245685;27;20073;-59
2023/10/17 10:30:43;;;;;;;10.57;4.23;;;10.20;99.90;;;;;;4245259;27;20039;-59
2023/10/17 10:32:44;;;;;;;5.57;3.17;;;10.20;99.90;;;;;;4245904;27;20112;-58
2023/10/17 10:34:45;;;;;;;9.70;5.60;;;10.20;99.90;;;;;;4243966;27;20428;-59
2023/10/17 10:36:47;;;;;;;6.53;4.30;;;10.20;99.90;;;;;;4246571;27;20031;-59
2023/10/17 10:38:49;;;;;;;5.23;3.33;;;10.10;99.90;;;;;;4244343;27;20035;-60
2023/10/17 10:40:50;;;;;;;6.30;2.93;;;10.20;99.90;;;;;;4246147;27;20112;-59
2023/10/17 10:42:58;;;;;;;4.27;2.50;;;10.20;99.90;;;;;;4244538;27;20071;-60
2023/10/17 10:44:59;;;;;;;4.90;2.70;;;10.20;99.90;;;;;;4245292;27;20556;-60
2023/10/17 10:47:00;;;;;;;10.43;3.07;;;10.10;99.90;;;;;;4244818;27;20365;-58
2023/10/17 10:49:01;;;;;;;5.97;2.27;;;10.00;99.90;;;;;;4245021;27;20437;-58
2023/10/17 10:51:03;;;;;;;3.10;1.93;;;10.00;99.90;;;;;;4237920;27;20095;-59
2023/10/17 10:53:20;;;;;;;5.27;3.00;;;10.00;99.90;;;;;;4243875;27;20108;-59
2023/10/17 10:55:24;;;;;;;3.73;2.20;;;10.00;99.90;;;;;;4244995;27;20088;-59
2023/10/17 10:57:28;;;;;;;5.13;2.73;;;10.10;99.90;;;;;;4237709;27;20088;-60
2023/10/17 10:59:29;;;;;;;4.13;2.53;;;10.20;99.90;;;;;;4244046;27;20031;-61
2023/10/17 11:01:31;;;;;;;3.43;3.07;;;10.10;99.90;;;;;;4244778;27;20854;-61
2023/10/17 11:03:32;;;;;;;4.03;2.70;;;10.10;99.90;;;;;;4244535;27;20903;-60
2023/10/17 11:05:57;;;;;;;4.00;2.67;;;10.10;99.90;;;;;;4239986;27;20031;-61
2023/10/17 11:08:00;;;;;;;4.00;2.53;;;10.10;99.90;;;;;;4237183;27;20092;-61
2023/10/17 11:10:06;;;;;;;3.17;2.37;;;10.20;99.90;;;;;;4243651;27;20080;-60
2023/10/17 11:12:08;;;;;;;4.70;3.00;;;10.20;99.90;;;;;;4245174;27;20397;-57
2023/10/17 11:14:16;;;;;;;11.00;3.77;;;10.30;99.90;;;;;;4244501;27;20061;-60
2023/10/17 11:16:19;;;;;;;3.97;3.00;;;10.30;99.90;;;;;;4245583;27;20389;-60
2023/10/17 11:18:20;;;;;;;8.73;2.90;;;10.30;99.90;;;;;;4244340;27;20039;-60
2023/10/17 11:20:22;;;;;;;4.87;3.03;;;10.30;99.90;;;;;;4244776;27;20047;-58
2023/10/17 11:22:23;;;;;;;3.67;3.17;;;10.40;99.90;;;;;;4244574;27;20068;-58
2023/10/17 11:24:26;;;;;;;3.73;2.23;;;10.40;99.90;;;;;;4245739;27;20455;-59
2023/10/17 11:26:34;;;;;;;4.87;2.70;;;10.40;99.90;;;;;;4244609;27;20027;-58
2023/10/17 11:28:41;;;;;;;5.60;3.27;;;10.40;99.90;;;;;;4245584;27;20367;-58
2023/10/17 11:30:45;;;;;;;4.07;2.80;;;10.40;99.90;;;;;;4244947;27;20404;-59
2023/10/17 11:32:47;;;;;;;4.23;3.07;;;10.40;99.90;;;;;;4245533;27;20031;-59
2023/10/17 11:35:03;;;;;;;3.50;2.57;;;10.50;99.90;;;;;;4228550;27;20039;-58
2023/10/17 11:37:11;;;;;;;4.37;2.53;;;10.60;99.90;;;;;;4232332;27;20394;-57
2023/10/17 11:39:15;;;;;;;5.70;2.80;;;10.60;99.90;;;;;;4244492;27;20499;-60
2023/10/17 11:41:19;;;;;;;2.70;2.37;;;10.60;99.90;;;;;;4244352;27;20062;-54
2023/10/17 11:43:28;;;;;;;4.30;2.30;;;10.60;99.90;;;;;;4242323;27;20076;-57
2023/10/17 11:45:36;;;;;;;5.23;2.50;;;10.60;99.90;;;;;;4240341;27;20047;-62
2023/10/17 11:47:38;;;;;;;5.53;2.63;;;10.60;99.90;;;;;;4234306;27;20427;-58
2023/10/17 11:49:41;;;;;;;5.20;2.70;;;10.60;99.90;;;;;;4244446;27;20047;-57
2023/10/17 11:51:42;;;;;;;4.50;2.60;;;10.70;99.90;;;;;;4244238;27;20531;-59
2023/10/17 11:54:04;;;;;;;4.00;2.60;;;10.70;99.90;;;;;;4243840;27;20043;-60
2023/10/17 11:56:05;;;;;;;6.13;2.63;;;10.70;99.90;;;;;;4244048;27;21044;-56
2023/10/17 11:58:06;;;;;;;6.30;2.80;;;10.80;99.90;;;;;;4244548;27;20047;-60
2023/10/17 12:02:19;;;;;;;4.93;2.53;;;10.80;99.90;;;;;;4243982;27;20076;-57
2023/10/17 12:04:20;;;;;;;3.70;2.30;;;10.80;99.90;;;;;;4244025;27;20027;-58
2023/10/17 12:06:26;;;;;;;3.13;2.20;;;10.90;99.90;;;;;;4244409;27;20051;-58
2023/10/17 12:08:29;;;;;;;3.77;1.93;;;10.90;99.90;;;;;;4244687;27;20095;-60
2023/10/17 12:10:36;;;;;;;3.07;1.93;;;11.10;99.90;;;;;;4243832;27;20031;-61
2023/10/17 12:12:39;;;;;;;2.20;2.00;;;11.10;99.90;;;;;;4245201;27;20039;-59
2023/10/17 12:14:41;;;;;;;3.87;2.17;;;11.10;99.90;;;;;;4243648;27;20031;-60
2023/10/17 12:16:43;;;;;;;3.93;2.03;;;11.20;99.90;;;;;;4244942;27;20043;-62
2023/10/17 12:18:45;;;;;;;5.43;2.00;;;11.20;99.90;;;;;;4243366;27;20050;-61
2023/10/17 12:20:49;;;;;;;7.17;2.40;;;11.20;99.90;;;;;;4244875;27;20150;-62
2023/10/17 12:22:50;;;;;;;5.60;2.00;;;11.20;99.90;;;;;;4243715;27;20504;-61
2023/10/17 12:24:51;;;;;;;4.97;2.40;;;11.30;99.90;;;;;;4227392;28;20480;-61
2023/10/17 12:26:53;;;;;;;3.23;2.07;;;11.30;99.90;;;;;;4226403;28;20035;-62
2023/10/17 12:28:54;;;;;;;3.70;2.00;;;11.40;99.90;;;;;;4227643;28;20044;-57
2023/10/17 12:30:55;;;;;;;4.37;2.40;;;11.50;99.90;;;;;;4226598;28;20015;-60
2023/10/17 12:32:56;;;;;;;3.10;1.90;;;11.50;99.90;;;;;;4226550;28;20035;-61
2023/10/17 12:34:58;;;;;;;3.87;2.57;;;11.50;99.90;;;;;;4228133;27;20024;-62
2023/10/17 12:37:02;;;;;;;4.13;1.87;;;11.50;99.90;;;;;;4244126;27;20027;-60
2023/10/17 12:39:08;;;;;;;3.80;2.03;;;11.50;99.70;;;;;;4238969;27;20088;-60
2023/10/17 12:41:09;;;;;;;3.40;1.83;;;11.50;99.70;;;;;;4241722;27;20055;-60
2023/10/17 12:43:11;;;;;;;6.33;2.17;;;11.50;99.10;;;;;;4244765;27;20552;-62
2023/10/17 12:45:14;;;;;;;2.33;1.90;;;11.40;98.90;;;;;;4235949;27;20028;-61
2023/10/17 12:47:16;;;;;;;3.57;1.80;;;11.40;98.80;;;;;;4230854;27;20044;-62
2023/10/17 12:49:19;;;;;;;5.20;2.03;;;11.40;99.20;;;;;;4242526;27;20064;-61
2023/10/17 12:51:23;;;;;;;4.90;1.97;;;11.50;99.10;;;;;;4243545;27;20043;-61
2023/10/17 12:53:24;;;;;;;4.50;1.77;;;11.60;99.20;;;;;;4245179;27;20103;-60
2023/10/17 12:55:25;;;;;;;3.83;2.40;;;11.70;99.30;;;;;;4245069;27;20035;-60
2023/10/17 12:57:26;;;;;;;3.47;1.90;;;11.70;98.70;;;;;;4243087;27;20432;-62